createdAt,value
2023-03-01T00:01:34.904Z,86.65
2023-03-01T00:04:02.612Z,72.80
2023-03-01T00:06:30.683Z,79.45
2023-03-01T00:08:58.353Z,86.57
2023-03-01T00:11:29.643Z,85.57
2023-03-01T00:14:01.348Z,79.87
2023-03-01T00:16:36.973Z,64.32
2023-03-01T00:19:05.093Z,56.80
2023-03-01T00:21:32.783Z,55.95
2023-03-01T00:24:00.638Z,61.45
2023-03-01T00:26:29.224Z,53.65
2023-03-01T00:28:58.822Z,37.98
2023-03-01T00:31:30.466Z,29.50
2023-03-01T00:34:01.935Z,27.75
2023-03-01T00:36:34.376Z,25.85
2023-03-01T00:39:04.705Z,24.87
2023-03-01T00:41:34.140Z,25.02
2023-03-01T00:44:01.860Z,24.23
2023-03-01T00:46:31.123Z,43.75
2023-03-01T00:48:58.841Z,46.08
2023-03-01T00:51:29.256Z,45.75
2023-03-01T00:54:01.330Z,50.63
2023-03-01T00:56:30.745Z,57.78
2023-03-01T00:58:58.933Z,48.85
2023-03-01T01:01:30.146Z,57.30
2023-03-01T01:04:01.847Z,52.03
2023-03-01T01:06:34.488Z,46.30
2023-03-01T01:09:06.020Z,40.73
2023-03-01T01:11:36.512Z,32.10
2023-03-01T01:14:04.636Z,31.93
2023-03-01T01:16:32.947Z,39.60
2023-03-01T01:19:00.883Z,35.75
2023-03-01T01:21:29.359Z,38.42
2023-03-01T01:23:57.793Z,40.38
2023-03-01T01:26:33.153Z,32.80
2023-03-01T01:29:04.675Z,27.52
2023-03-01T01:31:33.614Z,26.85
2023-03-01T01:34:04.483Z,23.62
2023-03-01T01:36:34.420Z,21.40
2023-03-01T01:39:02.523Z,22.30
2023-03-01T01:41:31.050Z,26.27
2023-03-01T01:44:23.870Z,20.08
2023-03-01T01:47:06.233Z,19.90
2023-03-01T01:49:44.352Z,22.05
2023-03-01T01:52:23.076Z,22.35
2023-03-01T01:55:12.047Z,20.97
2023-03-01T01:57:46.316Z,26.42
2023-03-01T02:00:19.089Z,22.05
2023-03-01T02:02:52.530Z,22.22
2023-03-01T02:05:25.849Z,27.75
2023-03-01T02:07:54.405Z,21.75
2023-03-01T02:10:25.141Z,24.30
2023-03-01T02:12:53.486Z,32.88
2023-03-01T02:15:23.218Z,36.88
2023-03-01T02:17:51.929Z,34.23
2023-03-01T02:20:59.942Z,36.70
2023-03-01T02:23:29.534Z,37.38
2023-03-01T02:26:17.742Z,46.55
2023-03-01T02:28:46.097Z,42.05
2023-03-01T02:31:36.665Z,49.05
2023-03-01T02:34:06.159Z,52.80
2023-03-01T02:36:39.129Z,99.35
2023-03-01T02:39:11.761Z,93.87
2023-03-01T02:41:40.257Z,79.90
2023-03-01T02:44:08.861Z,77.17
2023-03-01T02:46:44.170Z,98.25
2023-03-01T02:49:32.253Z,71.33
2023-03-01T02:52:31.337Z,64.22
2023-03-01T02:55:13.410Z,67.72
2023-03-01T02:57:44.958Z,68.10
2023-03-01T03:00:23.533Z,59.95
2023-03-01T03:02:54.022Z,53.10
2023-03-01T03:05:30.522Z,57.40
2023-03-01T03:08:01.607Z,58.50
2023-03-01T03:10:35.117Z,57.48
2023-03-01T03:13:10.427Z,52.55
2023-03-01T03:15:39.415Z,48.85
2023-03-01T03:18:11.578Z,49.67
2023-03-01T03:20:44.249Z,58.02
2023-03-01T03:23:12.504Z,48.23
2023-03-01T03:25:40.098Z,44.80
2023-03-01T03:28:11.441Z,48.95
2023-03-01T03:30:41.727Z,49.58
2023-03-01T03:33:13.673Z,45.52
2023-03-01T03:35:48.733Z,54.65
2023-03-01T03:38:19.639Z,48.15
2023-03-01T03:40:53.510Z,47.90
2023-03-01T03:43:23.804Z,42.85
2023-03-01T03:45:52.711Z,58.70
2023-03-01T03:48:21.487Z,47.03
2023-03-01T03:50:53.913Z,57.70
2023-03-01T03:53:25.268Z,57.03
2023-03-01T03:55:54.061Z,61.23
2023-03-01T03:58:24.759Z,64.72
2023-03-01T04:00:56.746Z,71.95
2023-03-01T04:03:26.672Z,71.85
2023-03-01T04:05:54.619Z,68.05
2023-03-01T04:08:24.076Z,64.87
2023-03-01T04:10:59.102Z,58.42
2023-03-01T04:13:27.418Z,60.20
2023-03-01T04:15:56.927Z,52.70
2023-03-01T04:18:25.796Z,50.08
2023-03-01T04:20:55.669Z,54.05
2023-03-01T04:23:23.492Z,54.45
2023-03-01T04:25:57.692Z,51.63
2023-03-01T04:28:34.664Z,52.65
2023-03-01T04:31:17.744Z,52.10
2023-03-01T04:33:51.827Z,53.13
2023-03-01T04:36:23.808Z,57.00
2023-03-01T04:38:52.423Z,51.73
2023-03-01T04:41:23.187Z,53.70
2023-03-01T04:43:51.312Z,52.83
2023-03-01T04:46:21.823Z,48.02
2023-03-01T04:48:49.649Z,55.92
2023-03-01T04:51:18.869Z,53.95
2023-03-01T04:53:47.154Z,48.08
2023-03-01T04:56:15.826Z,59.77
2023-03-01T04:58:43.846Z,50.88
2023-03-01T05:01:16.649Z,49.33
2023-03-01T05:03:48.298Z,56.10
2023-03-01T05:06:17.406Z,52.85
2023-03-01T05:08:46.463Z,52.70
2023-03-01T05:11:14.861Z,51.68
2023-03-01T05:13:42.810Z,58.98
2023-03-01T05:16:11.611Z,57.10
2023-03-01T05:18:41.233Z,51.20
2023-03-01T05:21:13.420Z,52.43
2023-03-01T05:23:41.226Z,54.05
2023-03-01T05:26:25.822Z,56.63
2023-03-01T05:28:40.204Z,51.58
2023-03-01T05:31:10.091Z,51.48
2023-03-01T05:33:40.832Z,50.28
2023-03-01T05:36:10.439Z,50.55
2023-03-01T05:38:38.078Z,55.58
2023-03-01T05:41:05.690Z,56.58
2023-03-01T05:43:34.410Z,53.28
2023-03-01T05:46:02.194Z,54.03
2023-03-01T05:48:29.983Z,52.67
2023-03-01T05:51:01.171Z,58.02
2023-03-01T05:53:28.828Z,55.48
2023-03-01T05:55:56.612Z,63.75
2023-03-01T05:58:24.840Z,68.90
2023-03-01T06:00:54.086Z,76.45
2023-03-01T06:03:22.016Z,67.10
2023-03-01T06:05:49.700Z,71.35
2023-03-01T06:08:17.444Z,93.20
2023-03-01T06:10:45.201Z,72.65
2023-03-01T06:13:12.908Z,64.05
2023-03-01T06:15:40.641Z,58.83
2023-03-01T06:18:09.386Z,51.35
2023-03-01T06:20:37.110Z,49.73
2023-03-01T06:23:05.000Z,51.42
2023-03-01T06:25:32.811Z,46.37
2023-03-01T06:28:01.048Z,51.80
2023-03-01T06:30:28.743Z,57.50
2023-03-01T06:32:59.377Z,57.38
2023-03-01T06:35:30.001Z,54.20
2023-03-01T06:38:00.384Z,62.08
2023-03-01T06:40:29.213Z,74.50
2023-03-01T06:42:56.672Z,71.47
2023-03-01T06:45:24.826Z,60.98
2023-03-01T06:47:52.378Z,51.53
2023-03-01T06:50:20.313Z,54.65
2023-03-01T06:52:48.622Z,54.85
2023-03-01T06:55:16.223Z,51.42
2023-03-01T06:57:43.911Z,51.20
2023-03-01T07:00:13.469Z,54.63
2023-03-01T07:02:41.069Z,50.83
2023-03-01T07:05:10.075Z,37.25
2023-03-01T07:07:37.843Z,29.07
2023-03-01T07:10:07.778Z,23.95
2023-03-01T07:12:35.515Z,23.60
2023-03-01T07:15:05.059Z,16.77
2023-03-01T07:17:32.659Z,17.27
2023-03-01T07:20:00.423Z,21.23
2023-03-01T07:22:27.948Z,16.67
2023-03-01T07:24:55.483Z,18.40
2023-03-01T07:27:23.047Z,21.77
2023-03-01T07:29:50.924Z,20.20
2023-03-01T07:32:19.322Z,29.05
2023-03-01T07:34:46.967Z,19.85
2023-03-01T07:37:14.893Z,18.82
2023-03-01T07:39:42.629Z,49.58
2023-03-01T07:42:10.471Z,57.40
2023-03-01T07:44:38.209Z,55.67
2023-03-01T07:47:06.166Z,54.73
2023-03-01T07:49:33.631Z,55.63
2023-03-01T07:52:01.466Z,47.62
2023-03-01T07:54:29.339Z,39.48
2023-03-01T07:56:58.081Z,40.63
2023-03-01T07:59:27.473Z,41.55
2023-03-01T08:01:55.168Z,39.85
2023-03-01T08:04:25.300Z,35.05
2023-03-01T08:06:53.762Z,35.43
2023-03-01T08:09:21.688Z,34.50
2023-03-01T08:11:49.299Z,34.13
2023-03-01T08:14:17.086Z,40.65
2023-03-01T08:16:44.839Z,36.03
2023-03-01T08:19:13.385Z,31.27
2023-03-01T08:21:41.172Z,37.45
2023-03-01T08:24:10.681Z,32.58
2023-03-01T08:26:38.055Z,37.38
2023-03-01T08:29:05.666Z,30.43
2023-03-01T08:31:39.427Z,30.77
2023-03-01T08:34:12.292Z,29.42
2023-03-01T08:36:43.116Z,33.88
2023-03-01T08:39:13.739Z,29.72
2023-03-01T08:41:41.657Z,29.32
2023-03-01T08:44:13.316Z,32.30
2023-03-01T08:46:42.598Z,32.42
2023-03-01T08:49:14.049Z,38.17
2023-03-01T08:51:42.605Z,37.42
2023-03-01T08:54:18.593Z,31.85
2023-03-01T08:56:47.222Z,27.30
2023-03-01T08:59:16.636Z,27.98
2023-03-01T09:01:44.682Z,24.47
2023-03-01T09:04:13.507Z,19.85
2023-03-01T09:06:41.053Z,20.02
2023-03-01T09:09:16.464Z,20.08
2023-03-01T09:11:47.804Z,20.25
2023-03-01T09:14:15.478Z,19.15
2023-03-01T09:16:43.749Z,21.33
2023-03-01T09:19:11.876Z,18.15
2023-03-01T09:21:41.120Z,17.07
2023-03-01T09:24:15.395Z,16.00
2023-03-01T09:26:45.634Z,15.98
2023-03-01T09:29:14.827Z,15.38
2023-03-01T09:31:43.434Z,14.23
2023-03-01T09:34:11.120Z,11.93
2023-03-01T09:36:39.011Z,14.35
2023-03-01T09:39:06.710Z,11.12
2023-03-01T09:41:58.388Z,10.68
2023-03-01T09:44:49.718Z,12.30
2023-03-01T09:47:31.335Z,12.28
2023-03-01T09:50:17.366Z,12.75
2023-03-01T09:53:08.108Z,9.33
2023-03-01T09:56:00.566Z,8.75
2023-03-01T09:58:58.055Z,7.58
2023-03-01T10:01:49.378Z,7.50
2023-03-01T10:04:43.226Z,8.25
2023-03-01T10:07:31.054Z,10.28
2023-03-01T10:10:01.008Z,38.30
2023-03-01T10:12:38.583Z,10.18
2023-03-01T10:15:26.943Z,4.80
2023-03-01T10:18:03.565Z,4.08
2023-03-01T10:20:45.821Z,3.37
2023-03-01T10:23:13.200Z,6.42
2023-03-01T10:26:17.759Z,3.10
2023-03-01T10:29:10.740Z,4.30
2023-03-01T10:31:50.928Z,3.00
2023-03-01T10:34:23.579Z,3.33
2023-03-01T10:36:55.983Z,3.60
2023-03-01T10:39:25.894Z,2.45
2023-03-01T10:42:06.503Z,4.80
2023-03-01T10:44:49.334Z,3.47
2023-03-01T10:47:25.145Z,2.93
2023-03-01T10:50:02.992Z,4.78
2023-03-01T10:52:37.658Z,5.60
2023-03-01T10:55:37.953Z,4.12
2023-03-01T10:58:21.794Z,4.45
2023-03-01T11:03:31.465Z,5.55
2023-03-01T11:06:16.009Z,58.85
2023-03-01T11:08:47.254Z,6.97
2023-03-01T11:11:34.206Z,5.28
2023-03-01T11:14:27.289Z,6.70
2023-03-01T11:17:14.468Z,3.22
2023-03-01T11:19:45.226Z,8.00
2023-03-01T11:22:21.267Z,4.30
2023-03-01T11:25:07.368Z,14.33
2023-03-01T11:27:41.530Z,4.95
2023-03-01T11:30:35.868Z,14.93
2023-03-01T11:33:35.813Z,5.70
2023-03-01T11:36:17.922Z,5.10
2023-03-01T11:38:45.646Z,5.78
2023-03-01T11:41:25.409Z,6.05
2023-03-01T11:44:01.844Z,4.67
2023-03-01T11:46:41.152Z,5.22
2023-03-01T11:49:57.204Z,3.95
2023-03-01T11:52:42.154Z,4.15
2023-03-01T11:55:39.052Z,4.67
2023-03-01T11:58:57.746Z,3.55
2023-03-01T12:01:59.806Z,2.95
2023-03-01T12:04:47.946Z,5.33
2023-03-01T12:07:58.712Z,3.08
2023-03-01T12:10:42.753Z,17.40
2023-03-01T12:16:07.242Z,29.52
2023-03-01T12:18:59.989Z,14.07
2023-03-01T12:22:02.724Z,5.00
2023-03-01T12:24:41.746Z,15.60
2023-03-01T12:27:23.267Z,5.08
2023-03-01T12:30:16.984Z,4.87
2023-03-01T12:33:02.130Z,3.55
2023-03-01T12:35:52.586Z,46.75
2023-03-01T12:38:51.542Z,37.98
2023-03-01T12:41:53.111Z,7.00
2023-03-01T12:44:48.960Z,5.45
2023-03-01T12:47:45.086Z,3.70
2023-03-01T12:50:22.550Z,3.02
2023-03-01T12:52:58.305Z,4.42
2023-03-01T12:55:43.907Z,4.05
2023-03-01T12:58:50.377Z,4.17
2023-03-01T13:01:39.766Z,2.87
2023-03-01T13:04:46.434Z,4.78
2023-03-01T13:07:38.900Z,4.85
2023-03-01T13:10:26.916Z,3.12
2023-03-01T13:13:02.891Z,3.25
2023-03-01T13:15:34.409Z,3.27
2023-03-01T13:18:07.074Z,3.00
2023-03-01T13:20:46.411Z,4.75
2023-03-01T13:23:25.764Z,3.55
2023-03-01T13:26:16.702Z,4.78
2023-03-01T13:28:56.284Z,4.83
2023-03-01T13:31:32.296Z,3.50
2023-03-01T13:34:04.894Z,4.12
2023-03-01T13:36:43.657Z,4.00
2023-03-01T13:39:33.207Z,5.08
2023-03-01T13:42:01.702Z,7.55
2023-03-01T13:44:39.144Z,6.03
2023-03-01T13:47:14.110Z,3.52
2023-03-01T13:50:01.365Z,4.62
2023-03-01T13:52:45.817Z,5.12
2023-03-01T13:55:28.051Z,5.47
2023-03-01T13:58:00.211Z,7.15
2023-03-01T14:00:38.832Z,7.47
2023-03-01T14:03:19.616Z,5.85
2023-03-01T14:06:14.273Z,4.53
2023-03-01T14:08:39.240Z,4.78
2023-03-01T14:11:36.940Z,5.00
2023-03-01T14:14:39.391Z,5.42
2023-03-01T14:17:40.448Z,3.52
2023-03-01T14:20:32.184Z,3.22
2023-03-01T14:23:03.790Z,3.75
2023-03-01T14:25:37.080Z,5.60
2023-03-01T14:28:30.702Z,3.65
2023-03-01T14:33:34.180Z,4.12
2023-03-01T14:36:07.269Z,4.25
2023-03-01T14:38:39.548Z,6.77
2023-03-01T14:41:21.153Z,12.03
2023-03-01T14:43:59.651Z,9.53
2023-03-01T14:46:40.882Z,7.22
2023-03-01T14:49:19.370Z,5.70
2023-03-01T14:52:03.668Z,7.97
2023-03-01T14:54:44.256Z,5.47
2023-03-01T14:57:25.401Z,15.38
2023-03-01T14:59:57.385Z,7.95
2023-03-01T15:02:27.602Z,6.90
2023-03-01T15:05:01.138Z,6.75
2023-03-01T15:07:36.443Z,10.85
2023-03-01T15:10:07.298Z,7.60
2023-03-01T15:12:40.994Z,11.68
2023-03-01T15:18:20.737Z,13.22
2023-03-01T15:20:49.938Z,11.57
2023-03-01T15:23:30.367Z,20.82
2023-03-01T15:25:58.724Z,32.03
2023-03-01T15:28:34.453Z,10.23
2023-03-01T15:31:16.774Z,14.93
2023-03-01T15:33:46.406Z,10.82
2023-03-01T15:36:34.532Z,10.40
2023-03-01T15:39:04.364Z,7.70
2023-03-01T15:41:39.222Z,16.27
2023-03-01T15:44:35.045Z,17.42
2023-03-01T15:47:00.833Z,27.75
2023-03-01T15:49:54.341Z,23.75
2023-03-01T15:52:19.248Z,22.05
2023-03-01T15:57:15.489Z,19.07
2023-03-01T15:59:44.983Z,24.30
2023-03-01T16:02:13.935Z,9.98
2023-03-01T16:04:42.099Z,6.85
2023-03-01T16:07:10.638Z,9.10
2023-03-01T16:09:38.320Z,6.10
2023-03-01T16:12:08.987Z,6.33
2023-03-01T16:14:36.434Z,4.12
2023-03-01T16:17:03.999Z,4.55
2023-03-01T16:19:31.508Z,8.95
2023-03-01T16:21:59.726Z,12.50
2023-03-01T16:24:27.484Z,10.60
2023-03-01T16:26:55.317Z,14.43
2023-03-01T16:29:23.142Z,8.18
2023-03-01T16:31:51.434Z,14.75
2023-03-01T16:34:21.206Z,24.92
2023-03-01T16:36:50.955Z,33.90
2023-03-01T16:39:18.782Z,34.53
2023-03-01T16:41:46.488Z,19.80
2023-03-01T16:44:15.610Z,23.07
2023-03-01T16:46:44.021Z,11.70
2023-03-01T16:49:11.895Z,15.38
2023-03-01T16:51:39.583Z,14.25
2023-03-01T16:54:07.481Z,15.30
2023-03-01T16:56:36.914Z,21.75
2023-03-01T16:59:06.623Z,27.42
2023-03-01T17:01:41.124Z,34.30
2023-03-01T17:04:12.512Z,26.40
2023-03-01T17:06:40.355Z,22.70
2023-03-01T17:09:07.990Z,15.20
2023-03-01T17:11:36.825Z,11.55
2023-03-01T17:14:04.361Z,12.18
2023-03-01T17:16:31.963Z,12.73
2023-03-01T17:18:59.823Z,27.45
2023-03-01T17:21:27.964Z,16.15
2023-03-01T17:23:57.895Z,11.18
2023-03-01T17:26:25.897Z,14.63
2023-03-01T17:28:53.595Z,14.68
2023-03-01T17:31:23.654Z,17.77
2023-03-01T17:33:51.891Z,15.68
2023-03-01T17:36:19.737Z,14.80
2023-03-01T17:38:48.228Z,20.02
2023-03-01T17:41:18.129Z,17.95
2023-03-01T17:43:46.117Z,24.80
2023-03-01T17:46:14.173Z,18.65
2023-03-01T17:48:42.281Z,22.93
2023-03-01T17:51:11.723Z,24.67
2023-03-01T17:53:39.356Z,26.27
2023-03-01T17:56:08.091Z,22.07
2023-03-01T17:58:35.674Z,25.27
2023-03-01T18:01:09.517Z,29.72
2023-03-01T18:06:15.224Z,30.00
2023-03-01T18:08:44.840Z,76.82
2023-03-01T18:11:15.084Z,34.60
2023-03-01T18:13:42.709Z,13.08
2023-03-01T18:16:14.562Z,14.53
2023-03-01T18:18:44.526Z,16.30
2023-03-01T18:21:13.946Z,20.88
2023-03-01T18:23:42.098Z,15.78
2023-03-01T18:26:12.676Z,14.35
2023-03-01T18:28:40.378Z,18.82
2023-03-01T18:31:13.144Z,14.73
2023-03-01T18:33:41.062Z,19.30
2023-03-01T18:36:23.196Z,20.70
2023-03-01T18:38:52.994Z,18.57
2023-03-01T18:41:20.736Z,18.90
2023-03-01T18:43:48.655Z,14.85
2023-03-01T18:46:16.667Z,28.77
2023-03-01T18:48:44.414Z,28.15
2023-03-01T18:51:16.490Z,43.65
2023-03-01T18:53:44.857Z,77.92
2023-03-01T18:56:13.388Z,46.37
2023-03-01T18:58:45.118Z,38.70
2023-03-01T19:01:16.764Z,25.85
2023-03-01T19:03:44.381Z,27.65
2023-03-01T19:06:12.779Z,29.90
2023-03-01T19:08:42.684Z,25.85
2023-03-01T19:11:12.117Z,22.55
2023-03-01T19:13:41.148Z,25.60
2023-03-01T19:16:12.880Z,32.00
2023-03-01T19:18:43.612Z,25.52
2023-03-01T19:21:11.794Z,25.32
2023-03-01T19:23:39.441Z,21.93
2023-03-01T19:26:13.620Z,27.65
2023-03-01T19:28:42.104Z,20.02
2023-03-01T19:31:17.605Z,21.55
2023-03-01T19:33:45.260Z,31.87
2023-03-01T19:36:14.893Z,34.15
2023-03-01T19:38:43.245Z,24.70
2023-03-01T19:41:16.215Z,17.40
2023-03-01T19:43:46.727Z,18.77
2023-03-01T19:46:15.780Z,18.15
2023-03-01T19:48:44.529Z,16.48
2023-03-01T19:51:12.857Z,17.45
2023-03-01T19:53:41.817Z,19.85
2023-03-01T19:56:10.063Z,21.55
2023-03-01T19:58:39.753Z,22.98
2023-03-01T20:01:14.756Z,24.10
2023-03-01T20:03:42.923Z,24.82
2023-03-01T20:06:14.656Z,33.63
2023-03-01T20:08:43.962Z,29.52
2023-03-01T20:11:14.915Z,36.03
2023-03-01T20:13:42.918Z,31.62
2023-03-01T20:16:11.196Z,31.10
2023-03-01T20:18:38.850Z,30.02
2023-03-01T20:21:21.517Z,33.67
2023-03-01T20:23:37.872Z,33.25
2023-03-01T20:26:09.046Z,25.43
2023-03-01T20:28:36.992Z,22.40
2023-03-01T20:31:07.533Z,23.32
2023-03-01T20:33:35.672Z,23.38
2023-03-01T20:36:05.205Z,19.95
2023-03-01T20:38:33.292Z,21.95
2023-03-01T20:41:07.685Z,20.17
2023-03-01T20:43:36.843Z,21.87
2023-03-01T20:46:07.598Z,17.90
2023-03-01T20:48:35.483Z,19.90
2023-03-01T20:51:08.270Z,23.50
2023-03-01T20:53:36.317Z,24.57
2023-03-01T20:56:06.267Z,29.60
2023-03-01T20:58:35.194Z,31.73
2023-03-01T21:01:05.724Z,28.38
2023-03-01T21:03:34.179Z,28.75
2023-03-01T21:06:05.510Z,28.07
2023-03-01T21:08:34.951Z,26.93
2023-03-01T21:11:05.625Z,26.85
2023-03-01T21:13:34.119Z,22.37
2023-03-01T21:16:09.767Z,21.15
2023-03-01T21:18:37.549Z,19.57
2023-03-01T21:21:15.978Z,23.77
2023-03-01T21:23:44.693Z,23.20
2023-03-01T21:26:16.192Z,20.40
2023-03-01T21:28:46.710Z,23.10
2023-03-01T21:31:18.908Z,20.85
2023-03-01T21:33:51.017Z,22.30
2023-03-01T21:36:20.583Z,21.48
2023-03-01T21:38:50.203Z,25.43
2023-03-01T21:41:25.716Z,23.98
2023-03-01T21:43:59.977Z,24.67
2023-03-01T21:46:31.741Z,24.65
2023-03-01T21:48:59.894Z,34.13
2023-03-01T21:51:28.079Z,31.12
2023-03-01T21:53:56.742Z,43.68
2023-03-01T21:56:27.503Z,32.10
2023-03-01T21:58:55.484Z,34.50
2023-03-01T22:01:28.721Z,39.35
2023-03-01T22:04:01.378Z,24.72
2023-03-01T22:06:34.771Z,24.92
2023-03-01T22:11:40.430Z,17.52
2023-03-01T22:14:09.037Z,19.75
2023-03-01T22:16:39.030Z,16.60
2023-03-01T22:19:07.966Z,16.15
2023-03-01T22:21:42.402Z,19.60
2023-03-01T22:24:11.804Z,16.55
2023-03-01T22:26:42.567Z,13.90
2023-03-01T22:29:17.609Z,18.07
2023-03-01T22:31:45.706Z,14.25
2023-03-01T22:34:14.447Z,13.80
2023-03-01T22:36:42.027Z,13.30
2023-03-01T22:39:09.623Z,16.70
2023-03-01T22:41:43.441Z,16.70
2023-03-01T22:44:18.070Z,17.35
2023-03-01T22:46:46.778Z,13.68
2023-03-01T22:49:16.060Z,19.57
2023-03-01T22:51:46.654Z,17.07
2023-03-01T22:54:16.474Z,20.05
2023-03-01T22:56:44.857Z,18.23
2023-03-01T22:59:18.508Z,21.80
2023-03-01T23:01:47.941Z,22.60
2023-03-01T23:04:17.911Z,25.45
2023-03-01T23:06:55.484Z,25.10
2023-03-01T23:09:30.845Z,23.83
2023-03-01T23:12:00.665Z,26.48
2023-03-01T23:14:31.933Z,23.62
2023-03-01T23:17:01.150Z,26.40
2023-03-01T23:19:29.865Z,22.65
2023-03-01T23:21:57.907Z,20.32
2023-03-01T23:24:29.520Z,20.17
2023-03-01T23:26:59.837Z,21.60
2023-03-01T23:29:27.507Z,16.77
2023-03-01T23:31:57.104Z,20.02
2023-03-01T23:34:26.193Z,21.68
2023-03-01T23:36:54.700Z,24.20
2023-03-01T23:39:22.425Z,21.37
2023-03-01T23:41:50.344Z,20.77
2023-03-01T23:44:20.469Z,20.17
2023-03-01T23:46:49.839Z,21.37
2023-03-01T23:49:21.636Z,25.68
2023-03-01T23:51:49.595Z,22.40
2023-03-01T23:54:21.431Z,23.20
2023-03-01T23:56:49.407Z,19.20
2023-03-01T23:59:21.179Z,16.32
